Terminal Aerodrome Forecast
Issued by NWS Detroit/Pontiac, MI

Home | Current Version | Previous Version | Text Only | Print | Product List | Glossary On
Versions: 1 2 3 4 5 6 7 8 9 10 11 12 13 14 15 16 17 18 19 20 21 22 23 24 25 26 27 28 29 30 31
000
FTUS43 KDTX 150200 AAA
TAFDTW
TAF AMD
KDTW 150243Z 1503/1606 19005KT P6SM SCT050 BKN200
     FM151700 23010KT 6SM -SHRA OVC070
     FM152200 25008KT 4SM -SHRA BR BKN030 OVC060
     FM160300 30008KT 6SM BR BKN015=

USA.gov is the U.S. government's official web portal to all federal, state and local government web resources and services.